createdAt,value
2022-07-31T00:00:51.397Z,19.91
2022-07-31T00:03:18.111Z,19.87
2022-07-31T00:05:44.764Z,19.88
2022-07-31T00:08:11.346Z,19.86
2022-07-31T00:10:38.517Z,19.84
2022-07-31T00:13:05.209Z,19.83
2022-07-31T00:15:31.829Z,19.78
2022-07-31T00:17:58.416Z,19.76
2022-07-31T00:20:25.071Z,19.74
2022-07-31T00:22:51.749Z,19.73
2022-07-31T00:25:19.019Z,19.69
2022-07-31T00:27:46.533Z,19.70
2022-07-31T00:30:13.746Z,19.67
2022-07-31T00:32:41.753Z,19.62
2022-07-31T00:35:08.972Z,19.59
2022-07-31T00:37:37.646Z,19.54
2022-07-31T00:40:07.887Z,19.52
2022-07-31T00:42:34.787Z,19.51
2022-07-31T00:45:01.610Z,19.47
2022-07-31T00:47:28.365Z,19.45
2022-07-31T00:49:56.578Z,19.44
2022-07-31T00:52:23.662Z,19.43
2022-07-31T00:54:50.283Z,19.41
2022-07-31T00:57:16.909Z,19.38
2022-07-31T00:59:43.920Z,19.36
2022-07-31T01:02:10.925Z,19.38
2022-07-31T01:04:37.751Z,19.33
2022-07-31T01:07:08.560Z,19.29
2022-07-31T01:09:36.011Z,19.29
2022-07-31T01:12:32.812Z,19.27
2022-07-31T01:15:04.821Z,19.26
2022-07-31T01:17:32.896Z,19.25
2022-07-31T01:19:59.883Z,19.19
2022-07-31T01:22:53.687Z,19.18
2022-07-31T01:25:47.843Z,19.12
2022-07-31T01:28:49.600Z,19.11
2022-07-31T01:31:27.224Z,19.09
2022-07-31T01:34:03.995Z,19.06
2022-07-31T01:36:35.155Z,19.05
2022-07-31T01:39:02.841Z,19.07
2022-07-31T01:41:36.222Z,19.04
2022-07-31T01:44:05.378Z,19.03
2022-07-31T01:46:37.464Z,18.99
2022-07-31T01:49:09.979Z,18.99
2022-07-31T01:51:39.167Z,18.92
2022-07-31T01:54:06.866Z,18.90
2022-07-31T01:56:35.115Z,18.88
2022-07-31T01:59:04.600Z,18.85
2022-07-31T02:01:45.013Z,18.85
2022-07-31T02:04:14.144Z,18.81
2022-07-31T02:06:41.653Z,18.81
2022-07-31T02:09:08.505Z,18.78
2022-07-31T02:11:36.045Z,18.72
2022-07-31T02:14:21.460Z,18.71
2022-07-31T02:16:49.503Z,18.66
2022-07-31T02:19:17.321Z,18.67
2022-07-31T02:21:44.071Z,18.61
2022-07-31T02:24:10.755Z,18.58
2022-07-31T02:26:40.324Z,18.61
2022-07-31T02:29:19.788Z,18.57
2022-07-31T02:32:02.982Z,18.55
2022-07-31T02:34:32.434Z,18.53
2022-07-31T02:37:01.261Z,18.50
2022-07-31T02:39:30.810Z,18.47
2022-07-31T02:42:01.665Z,18.44
2022-07-31T02:44:32.465Z,18.43
2022-07-31T02:47:02.574Z,18.42
2022-07-31T02:49:30.724Z,18.40
2022-07-31T02:51:57.934Z,18.39
2022-07-31T02:54:26.163Z,18.33
2022-07-31T02:56:53.675Z,18.29
2022-07-31T02:59:22.139Z,18.29
2022-07-31T03:01:48.944Z,18.26
2022-07-31T03:04:15.621Z,18.24
2022-07-31T03:06:43.425Z,18.22
2022-07-31T03:09:10.155Z,18.20
2022-07-31T03:11:36.906Z,18.17
2022-07-31T03:14:05.599Z,18.20
2022-07-31T03:16:34.135Z,18.14
2022-07-31T03:19:01.923Z,18.12
2022-07-31T03:21:29.712Z,18.13
2022-07-31T03:23:57.532Z,18.11
2022-07-31T03:26:24.546Z,18.12
2022-07-31T03:28:51.453Z,18.12
2022-07-31T03:31:18.047Z,18.09
2022-07-31T03:33:44.683Z,18.09
2022-07-31T03:36:11.395Z,18.07
2022-07-31T03:38:42.248Z,18.09
2022-07-31T03:41:11.030Z,18.08
2022-07-31T03:43:44.375Z,18.05
2022-07-31T03:46:17.043Z,18.03
2022-07-31T03:48:43.771Z,18.02
2022-07-31T03:51:10.714Z,18.01
2022-07-31T03:53:37.991Z,17.99
2022-07-31T03:56:06.716Z,17.98
2022-07-31T03:58:33.522Z,18.02
2022-07-31T04:01:07.299Z,18.03
2022-07-31T04:03:38.191Z,18.03
2022-07-31T04:06:04.843Z,18.06
2022-07-31T04:08:31.463Z,18.09
2022-07-31T04:10:59.165Z,18.10
2022-07-31T04:13:25.728Z,18.15
2022-07-31T04:15:52.347Z,18.20
2022-07-31T04:18:19.004Z,18.20
2022-07-31T04:20:45.632Z,18.17
2022-07-31T04:23:12.278Z,18.22
2022-07-31T04:25:39.252Z,18.23
2022-07-31T04:28:05.921Z,18.22
2022-07-31T04:30:32.560Z,18.20
2022-07-31T04:32:59.492Z,18.29
2022-07-31T04:35:26.096Z,18.38
2022-07-31T04:37:52.765Z,18.37
2022-07-31T04:40:19.425Z,18.50
2022-07-31T04:42:46.075Z,18.53
2022-07-31T04:45:12.759Z,18.59
2022-07-31T04:47:39.320Z,18.72
2022-07-31T04:50:06.468Z,18.81
2022-07-31T04:52:33.066Z,18.90
2022-07-31T04:54:59.658Z,18.90
2022-07-31T04:57:26.295Z,18.97
2022-07-31T04:59:59.339Z,18.91
2022-07-31T05:02:29.134Z,19.02
2022-07-31T05:04:56.771Z,18.99
2022-07-31T05:07:24.471Z,19.10
2022-07-31T05:09:55.480Z,19.20
2022-07-31T05:12:22.098Z,19.27
2022-07-31T05:14:51.874Z,19.46
2022-07-31T05:17:18.426Z,19.47
2022-07-31T05:19:45.079Z,19.46
2022-07-31T05:22:12.431Z,19.57
2022-07-31T05:24:39.176Z,19.71
2022-07-31T05:27:06.413Z,19.78
2022-07-31T05:29:33.665Z,19.89
2022-07-31T05:32:01.255Z,19.93
2022-07-31T05:34:31.213Z,20.10
2022-07-31T05:37:01.173Z,20.19
2022-07-31T05:39:28.702Z,20.04
2022-07-31T05:41:55.326Z,20.16
2022-07-31T05:44:21.991Z,20.38
2022-07-31T05:49:15.829Z,20.81
2022-07-31T05:51:46.742Z,20.86
2022-07-31T05:54:13.759Z,21.08
2022-07-31T05:56:40.380Z,21.20
2022-07-31T05:59:07.040Z,21.37
2022-07-31T06:01:33.735Z,21.55
2022-07-31T06:04:01.076Z,21.34
2022-07-31T06:06:27.721Z,21.23
2022-07-31T06:08:55.228Z,21.15
2022-07-31T06:11:21.936Z,21.25
2022-07-31T06:13:48.535Z,21.62
2022-07-31T06:16:15.717Z,21.75
2022-07-31T06:18:43.424Z,21.66
2022-07-31T06:23:37.324Z,21.75
2022-07-31T06:26:04.367Z,21.94
2022-07-31T06:28:47.671Z,22.21
2022-07-31T06:31:17.825Z,22.28
2022-07-31T06:33:48.081Z,22.07
2022-07-31T06:36:16.469Z,21.96
2022-07-31T06:38:43.035Z,22.12
2022-07-31T06:41:09.764Z,22.40
2022-07-31T06:43:36.431Z,22.35
2022-07-31T06:46:03.055Z,22.36
2022-07-31T06:48:29.692Z,22.69
2022-07-31T06:51:14.699Z,22.58
2022-07-31T06:53:42.934Z,23.11
2022-07-31T06:56:09.572Z,23.26
2022-07-31T06:58:36.180Z,23.19
2022-07-31T07:01:02.886Z,23.01
2022-07-31T07:03:29.493Z,23.00
2022-07-31T07:05:56.097Z,23.40
2022-07-31T07:08:22.706Z,23.47
2022-07-31T07:10:49.462Z,23.23
2022-07-31T07:13:16.122Z,22.73
2022-07-31T07:15:42.801Z,22.84
2022-07-31T07:18:09.428Z,23.48
2022-07-31T07:20:36.017Z,23.80
2022-07-31T07:23:02.659Z,23.88
2022-07-31T07:25:29.342Z,24.13
2022-07-31T07:27:56.815Z,23.81
2022-07-31T07:30:24.222Z,23.75
2022-07-31T07:32:50.916Z,24.04
2022-07-31T07:35:17.552Z,23.86
2022-07-31T07:37:44.192Z,23.99
2022-07-31T07:40:11.686Z,24.35
2022-07-31T07:42:38.544Z,23.97
2022-07-31T07:45:08.143Z,24.19
2022-07-31T07:48:05.698Z,23.77
2022-07-31T07:50:26.693Z,24.19
2022-07-31T07:52:54.268Z,24.48
2022-07-31T07:55:20.856Z,24.39
2022-07-31T07:57:47.468Z,24.45
2022-07-31T08:00:14.741Z,24.41
2022-07-31T08:02:42.689Z,24.32
2022-07-31T08:05:09.583Z,24.68
2022-07-31T08:07:42.123Z,25.08
2022-07-31T08:10:10.715Z,25.28
2022-07-31T08:12:38.052Z,24.86
2022-07-31T08:15:05.626Z,24.86
2022-07-31T08:17:32.273Z,25.23
2022-07-31T08:19:58.868Z,25.51
2022-07-31T08:22:25.602Z,25.29
2022-07-31T08:24:52.190Z,25.42
2022-07-31T08:27:28.470Z,25.20
2022-07-31T08:30:08.087Z,24.65
2022-07-31T08:32:34.821Z,25.42
2022-07-31T08:35:01.757Z,25.87
2022-07-31T08:38:02.303Z,25.92
2022-07-31T08:40:17.969Z,26.46
2022-07-31T08:42:46.163Z,26.22
2022-07-31T08:45:14.175Z,26.10
2022-07-31T08:47:42.311Z,25.32
2022-07-31T08:50:13.048Z,25.55
2022-07-31T08:52:42.820Z,26.16
2022-07-31T08:55:10.182Z,26.13
2022-07-31T08:57:37.105Z,25.87
2022-07-31T09:00:09.895Z,26.01
2022-07-31T09:02:41.697Z,26.33
2022-07-31T09:05:08.734Z,26.64
2022-07-31T09:07:35.448Z,26.66
2022-07-31T09:10:07.251Z,26.86
2022-07-31T09:12:34.790Z,26.97
2022-07-31T09:15:02.229Z,27.19
2022-07-31T09:17:36.402Z,27.27
2022-07-31T09:20:05.639Z,27.24
2022-07-31T09:22:32.375Z,27.43
2022-07-31T09:25:19.294Z,26.95
2022-07-31T09:27:48.833Z,26.89
2022-07-31T09:30:16.235Z,26.78
2022-07-31T09:32:43.362Z,27.33
2022-07-31T09:35:12.226Z,27.46
2022-07-31T09:37:39.415Z,27.64
2022-07-31T09:40:08.088Z,27.72
2022-07-31T09:42:45.846Z,28.01
2022-07-31T09:45:20.299Z,27.64
2022-07-31T09:47:47.478Z,27.55
2022-07-31T09:50:14.579Z,27.85
2022-07-31T09:52:41.286Z,28.25
2022-07-31T09:55:15.556Z,27.84
2022-07-31T09:57:54.317Z,27.42
2022-07-31T10:00:21.484Z,26.50
2022-07-31T10:02:48.764Z,26.45
2022-07-31T10:05:16.439Z,27.16
2022-07-31T10:07:43.587Z,27.47
2022-07-31T10:10:12.285Z,27.21
2022-07-31T10:12:42.288Z,26.89
2022-07-31T10:15:13.741Z,26.83
2022-07-31T10:17:43.547Z,27.46
2022-07-31T10:20:15.018Z,28.61
2022-07-31T10:22:46.696Z,28.06
2022-07-31T10:25:19.741Z,26.95
2022-07-31T10:27:46.664Z,27.17
2022-07-31T10:30:13.581Z,26.78
2022-07-31T10:32:40.298Z,27.71
2022-07-31T10:35:07.833Z,27.78
2022-07-31T10:37:40.374Z,27.12
2022-07-31T10:40:26.584Z,27.60
2022-07-31T10:43:20.301Z,27.63
2022-07-31T10:45:52.304Z,28.52
2022-07-31T10:48:20.109Z,28.45
2022-07-31T10:50:47.323Z,28.20
2022-07-31T10:53:18.283Z,27.57
2022-07-31T10:55:45.325Z,27.91
2022-07-31T10:58:21.880Z,28.42
2022-07-31T11:00:51.873Z,28.21
2022-07-31T11:03:20.493Z,27.67
2022-07-31T11:06:02.360Z,28.28
2022-07-31T11:08:41.329Z,28.61
2022-07-31T11:11:08.115Z,28.43
2022-07-31T11:13:52.081Z,27.86
2022-07-31T11:16:19.700Z,27.50
2022-07-31T11:19:08.434Z,28.78
2022-07-31T11:21:40.634Z,29.70
2022-07-31T11:24:13.779Z,29.42
2022-07-31T11:26:53.910Z,29.50
2022-07-31T11:29:59.396Z,29.93
2022-07-31T11:32:22.895Z,28.83
2022-07-31T11:34:56.894Z,29.33
2022-07-31T11:37:25.646Z,29.78
2022-07-31T11:39:54.678Z,29.76
2022-07-31T11:42:27.527Z,30.10
2022-07-31T11:45:08.353Z,30.44
2022-07-31T11:48:12.603Z,30.34
2022-07-31T11:50:31.203Z,29.15
2022-07-31T11:53:04.587Z,29.25
2022-07-31T11:55:31.367Z,29.51
2022-07-31T11:57:58.013Z,29.56
2022-07-31T12:00:26.784Z,29.79
2022-07-31T12:02:56.290Z,29.69
2022-07-31T12:05:38.000Z,29.13
2022-07-31T12:08:05.556Z,29.87
2022-07-31T12:10:32.291Z,29.94
2022-07-31T12:12:58.932Z,29.93
2022-07-31T12:15:25.594Z,29.61
2022-07-31T12:18:01.811Z,30.57
2022-07-31T12:20:35.751Z,30.98
2022-07-31T12:23:05.151Z,31.38
2022-07-31T12:25:46.397Z,31.35
2022-07-31T12:28:14.446Z,31.43
2022-07-31T12:31:03.007Z,30.69
2022-07-31T12:33:40.719Z,30.95
2022-07-31T12:36:17.917Z,30.84
2022-07-31T12:38:48.273Z,30.05
2022-07-31T12:41:16.092Z,30.65
2022-07-31T12:43:51.121Z,31.31
2022-07-31T12:46:19.493Z,31.47
2022-07-31T12:48:46.561Z,30.92
2022-07-31T12:51:13.403Z,31.09
2022-07-31T12:53:40.084Z,31.38
2022-07-31T12:56:13.763Z,30.48
2022-07-31T12:58:40.378Z,29.72
2022-07-31T13:01:07.064Z,29.10
2022-07-31T13:03:45.473Z,29.74
2022-07-31T13:06:13.503Z,30.67
2022-07-31T13:08:40.305Z,31.41
2022-07-31T13:11:06.904Z,31.94
2022-07-31T13:13:33.577Z,31.67
2022-07-31T13:16:00.280Z,31.35
2022-07-31T13:18:26.856Z,30.85
2022-07-31T13:20:53.553Z,30.17
2022-07-31T13:23:21.511Z,29.79
2022-07-31T13:25:48.181Z,29.78
2022-07-31T13:28:14.791Z,29.72
2022-07-31T13:30:41.669Z,30.52
2022-07-31T13:33:08.343Z,31.56
2022-07-31T13:35:34.996Z,31.31
2022-07-31T13:38:01.615Z,31.24
2022-07-31T13:40:46.648Z,31.46
2022-07-31T13:43:13.656Z,31.96
2022-07-31T13:45:40.338Z,32.31
2022-07-31T13:48:09.519Z,31.91
2022-07-31T13:50:39.976Z,31.59
2022-07-31T13:53:06.900Z,31.07
2022-07-31T13:55:33.579Z,30.57
2022-07-31T13:58:01.315Z,30.02
2022-07-31T14:00:29.651Z,29.33
2022-07-31T14:02:56.979Z,28.54
2022-07-31T14:05:24.242Z,28.43
2022-07-31T14:07:53.357Z,28.28
2022-07-31T14:10:21.811Z,28.31
2022-07-31T14:12:49.006Z,28.41
2022-07-31T14:15:16.666Z,28.07
2022-07-31T14:17:43.287Z,28.00
2022-07-31T14:20:10.435Z,28.13
2022-07-31T14:22:37.090Z,28.14
2022-07-31T14:25:04.217Z,28.38
2022-07-31T14:27:31.003Z,28.15
2022-07-31T14:29:57.681Z,28.51
2022-07-31T14:32:25.271Z,29.29
2022-07-31T14:34:52.380Z,29.56
2022-07-31T14:37:20.594Z,29.56
2022-07-31T14:39:47.829Z,29.26
2022-07-31T14:42:14.524Z,29.84
2022-07-31T14:44:42.315Z,29.80
2022-07-31T14:47:11.213Z,30.06
2022-07-31T14:50:07.644Z,30.51
2022-07-31T14:52:25.225Z,31.00
2022-07-31T14:54:53.918Z,31.49
2022-07-31T14:57:22.317Z,31.02
2022-07-31T14:59:50.060Z,30.87
2022-07-31T15:02:21.969Z,31.34
2022-07-31T15:04:49.721Z,31.08
2022-07-31T15:07:34.779Z,31.57
2022-07-31T15:10:06.917Z,30.94
2022-07-31T15:12:33.690Z,31.14
2022-07-31T15:15:00.558Z,31.24
2022-07-31T15:17:27.244Z,30.97
2022-07-31T15:19:54.002Z,31.43
2022-07-31T15:22:20.916Z,31.13
2022-07-31T15:24:50.050Z,32.06
2022-07-31T15:27:24.766Z,31.46
2022-07-31T15:30:03.693Z,30.80
2022-07-31T15:32:35.416Z,30.89
2022-07-31T15:35:02.625Z,31.48
2022-07-31T15:37:30.230Z,30.07
2022-07-31T15:40:01.904Z,29.39
2022-07-31T15:42:30.242Z,28.91
2022-07-31T15:44:56.846Z,28.64
2022-07-31T15:47:23.587Z,29.20
2022-07-31T15:49:50.408Z,28.74
2022-07-31T15:52:19.053Z,28.38
2022-07-31T15:54:46.696Z,28.15
2022-07-31T15:57:13.678Z,28.24
2022-07-31T15:59:41.820Z,28.76
2022-07-31T16:02:08.553Z,28.82
2022-07-31T16:04:51.565Z,28.39
2022-07-31T16:08:28.600Z,28.40
2022-07-31T16:10:15.428Z,28.61
2022-07-31T16:12:46.576Z,29.12
2022-07-31T16:15:14.333Z,29.44
2022-07-31T16:17:41.818Z,29.22
2022-07-31T16:20:25.565Z,28.83
2022-07-31T16:22:56.466Z,28.64
2022-07-31T16:25:24.506Z,29.05
2022-07-31T16:27:51.694Z,28.85
2022-07-31T16:30:18.377Z,28.73
2022-07-31T16:32:45.105Z,28.81
2022-07-31T16:35:12.627Z,28.46
2022-07-31T16:37:51.298Z,28.49
2022-07-31T16:40:29.684Z,28.94
2022-07-31T16:43:49.365Z,28.90
2022-07-31T16:45:50.515Z,28.99
2022-07-31T16:48:17.429Z,28.85
2022-07-31T16:50:44.099Z,28.44
2022-07-31T16:54:11.076Z,28.46
2022-07-31T16:56:01.016Z,28.28
2022-07-31T16:58:28.991Z,28.06
2022-07-31T17:00:55.854Z,27.89
2022-07-31T17:03:58.912Z,27.99
2022-07-31T17:06:10.516Z,28.04
2022-07-31T17:08:38.318Z,27.52
2022-07-31T17:11:05.250Z,27.46
2022-07-31T17:13:32.002Z,27.01
2022-07-31T17:15:58.704Z,26.88
2022-07-31T17:18:26.028Z,26.62
2022-07-31T17:20:55.722Z,26.43
2022-07-31T17:23:43.276Z,26.12
2022-07-31T17:26:21.165Z,26.00
2022-07-31T17:28:50.667Z,25.79
2022-07-31T17:31:18.920Z,25.74
2022-07-31T17:33:58.331Z,25.64
2022-07-31T17:36:28.500Z,25.53
2022-07-31T17:38:55.694Z,25.36
2022-07-31T17:41:24.833Z,25.21
2022-07-31T17:43:55.567Z,25.10
2022-07-31T17:46:34.603Z,25.01
2022-07-31T17:49:05.822Z,24.89
2022-07-31T17:51:33.192Z,24.83
2022-07-31T17:54:00.120Z,24.74
2022-07-31T17:56:27.155Z,24.66
2022-07-31T17:58:55.646Z,24.59
2022-07-31T18:01:27.062Z,24.54
2022-07-31T18:03:55.764Z,24.45
2022-07-31T18:06:22.506Z,24.40
2022-07-31T18:08:49.337Z,24.36
2022-07-31T18:11:15.981Z,24.30
2022-07-31T18:13:48.578Z,24.25
2022-07-31T18:16:19.208Z,24.23
2022-07-31T18:18:46.295Z,24.19
2022-07-31T18:21:13.450Z,24.16
2022-07-31T18:23:47.307Z,24.12
2022-07-31T18:26:14.600Z,24.05
2022-07-31T18:28:41.452Z,23.97
2022-07-31T18:31:24.153Z,23.90
2022-07-31T18:33:54.844Z,23.82
2022-07-31T18:36:21.575Z,23.75
2022-07-31T18:38:48.366Z,23.68
2022-07-31T18:41:15.071Z,23.64
2022-07-31T18:43:41.673Z,23.59
2022-07-31T18:46:08.299Z,23.56
2022-07-31T18:48:34.951Z,23.54
2022-07-31T18:51:04.718Z,23.51
2022-07-31T18:53:32.823Z,23.46
2022-07-31T18:55:59.479Z,23.47
2022-07-31T18:58:26.146Z,23.46
2022-07-31T19:00:55.080Z,23.44
2022-07-31T19:03:26.407Z,23.42
2022-07-31T19:05:54.563Z,23.39
2022-07-31T19:08:21.508Z,23.36
2022-07-31T19:10:53.518Z,23.33
2022-07-31T19:13:21.247Z,23.32
2022-07-31T19:15:49.091Z,23.27
2022-07-31T19:18:15.811Z,23.24
2022-07-31T19:20:58.935Z,23.22
2022-07-31T19:23:32.323Z,23.19
2022-07-31T19:26:04.093Z,23.15
2022-07-31T19:28:34.049Z,23.22
2022-07-31T19:31:00.702Z,23.23
2022-07-31T19:33:27.329Z,23.21
2022-07-31T19:36:00.963Z,23.18
2022-07-31T19:38:30.147Z,23.14
2022-07-31T19:40:56.850Z,23.10
2022-07-31T19:43:23.494Z,23.05
2022-07-31T19:46:00.489Z,22.99
2022-07-31T19:48:36.957Z,22.86
2022-07-31T19:51:04.734Z,22.77
2022-07-31T19:53:31.674Z,22.71
2022-07-31T19:56:01.341Z,22.64
2022-07-31T19:58:27.939Z,22.56
2022-07-31T20:00:54.572Z,22.52
2022-07-31T20:03:21.324Z,22.46
2022-07-31T20:05:47.996Z,22.40
2022-07-31T20:08:14.595Z,22.36
2022-07-31T20:10:41.240Z,22.33
2022-07-31T20:13:07.823Z,22.30
2022-07-31T20:15:51.682Z,22.29
2022-07-31T20:18:27.582Z,22.28
2022-07-31T20:20:57.750Z,22.22
2022-07-31T20:23:27.777Z,22.19
2022-07-31T20:25:54.632Z,22.14
2022-07-31T20:28:21.518Z,22.11
2022-07-31T20:30:48.376Z,22.08
2022-07-31T20:33:15.257Z,22.04
2022-07-31T20:35:47.630Z,22.00
2022-07-31T20:38:22.826Z,21.96
2022-07-31T20:40:54.408Z,21.92
2022-07-31T20:43:26.580Z,21.89
2022-07-31T20:45:57.963Z,21.88
2022-07-31T20:48:31.243Z,21.86
2022-07-31T20:51:03.999Z,21.85
2022-07-31T20:53:31.945Z,21.82
2022-07-31T20:55:59.355Z,21.78
2022-07-31T20:58:26.452Z,21.69
2022-07-31T21:00:53.797Z,21.53
2022-07-31T21:03:20.925Z,21.47
2022-07-31T21:05:47.929Z,21.37
2022-07-31T21:08:16.259Z,21.32
2022-07-31T21:10:42.949Z,21.28
2022-07-31T21:13:10.129Z,21.24
2022-07-31T21:15:43.902Z,21.21
2022-07-31T21:18:16.328Z,21.18
2022-07-31T21:20:51.007Z,21.15
2022-07-31T21:23:24.289Z,21.13
2022-07-31T21:25:55.358Z,21.14
2022-07-31T21:28:23.291Z,21.06
2022-07-31T21:30:50.339Z,21.03
2022-07-31T21:33:18.366Z,20.96
2022-07-31T21:35:46.644Z,20.91
2022-07-31T21:38:17.148Z,20.85
2022-07-31T21:40:45.008Z,20.78
2022-07-31T21:43:15.977Z,20.73
2022-07-31T21:45:50.464Z,20.71
2022-07-31T21:48:24.869Z,20.71
2022-07-31T21:50:52.558Z,20.70
2022-07-31T21:53:19.474Z,20.71
2022-07-31T21:55:46.136Z,20.68
2022-07-31T21:58:12.752Z,20.67
2022-07-31T22:00:39.498Z,20.65
2022-07-31T22:03:06.322Z,20.62
2022-07-31T22:05:52.742Z,20.57
2022-07-31T22:08:20.246Z,20.56
2022-07-31T22:10:47.182Z,20.53
2022-07-31T22:13:13.883Z,20.46
2022-07-31T22:15:52.702Z,20.41
2022-07-31T22:18:32.358Z,20.35
2022-07-31T22:21:00.473Z,20.33
2022-07-31T22:23:27.916Z,20.31
2022-07-31T22:25:55.414Z,20.26
2022-07-31T22:28:23.473Z,20.26
2022-07-31T22:30:50.902Z,20.24
2022-07-31T22:33:17.955Z,20.20
2022-07-31T22:35:44.796Z,20.17
2022-07-31T22:38:26.679Z,20.17
2022-07-31T22:40:53.352Z,20.15
2022-07-31T22:44:10.224Z,20.14
2022-07-31T22:46:06.825Z,20.14
2022-07-31T22:48:33.745Z,20.15
2022-07-31T22:51:01.599Z,20.14
2022-07-31T22:53:28.237Z,20.13
2022-07-31T22:55:55.147Z,20.13
2022-07-31T22:58:22.351Z,20.12
2022-07-31T23:00:49.970Z,20.13
2022-07-31T23:03:17.028Z,20.14
2022-07-31T23:06:13.083Z,20.14
2022-07-31T23:08:30.302Z,20.02
2022-07-31T23:10:56.899Z,19.85
2022-07-31T23:13:23.515Z,19.68
2022-07-31T23:15:50.145Z,19.61
2022-07-31T23:18:16.737Z,19.50
2022-07-31T23:20:44.125Z,19.46
2022-07-31T23:23:10.740Z,19.42
2022-07-31T23:25:37.397Z,19.38
2022-07-31T23:28:04.037Z,19.40
2022-07-31T23:30:31.138Z,19.41
2022-07-31T23:32:57.724Z,19.43
2022-07-31T23:35:24.301Z,19.43
2022-07-31T23:37:50.907Z,19.43
2022-07-31T23:40:17.527Z,19.42
2022-07-31T23:42:44.145Z,19.42
2022-07-31T23:45:15.410Z,19.38
2022-07-31T23:47:46.227Z,19.26
2022-07-31T23:50:13.721Z,19.17
2022-07-31T23:52:40.413Z,19.07
2022-07-31T23:55:07.397Z,19.04
2022-07-31T23:57:35.925Z,19.00
